Roanoke, VA (24014)

5:50 PM EST on December 28, 2014 (GMT -0500)
Edgehill Est. - S Roanoke 1500 ft. | Change Station
CLOSE
Current Station
Personal Weather Station
Location: Roanoke, VA
Elevation: 1440 ft
Nearby Weather Stations

Elev 1440 ft 37.23 °N, 79.96 °W | Updated 11 seconds ago

Overcast
Overcast
51.1 °F
Feels Like 51.1 °F
N
2.3
Wind Variable Wind from WNW
Gusts 2.4 mph

Today
High -- | Low -- °F
--% Chance of Precip.
Yesterday
High -- | Low -- °F
Precip. -- in
7:32 AM 5:10 PM
First Quarter, 52% visible
Pressure 30.02 in
Visibility 10.0 miles
Clouds Few 2000 ft
Scattered Clouds 6500 ft
Mostly Cloudy 9000 ft
Mostly Cloudy 25000 ft
Dew Point 47 °F
Humidity 86%
Rainfall 0.00 in
Snow Depth Not available.
UV 0 out of 12
Pollen .10 out of 12
Air Quality Not available.
Flu Activity Not available.
METAR KROA 282154Z 23005KT 10SM FEW020 SCT065 BKN090 BKN250 12/08 A3002 RMK AO2 SLP164 T01170083

More Conditions Fewer Conditions

Pressure 30.02 in
Visibility 10.0 miles
Clouds Few 2000 ft
Scattered Clouds 6500 ft
Mostly Cloudy 9000 ft
Mostly Cloudy 25000 ft
Dew Point 47 °F
Humidity 86%
Rainfall 0.00 in
Snow Depth Not available.
UV 0 out of 12
Pollen .10 out of 12
Air Quality Not available.
Flu Activity Not available.
METAR KROA 282154Z 23005KT 10SM FEW020 SCT065 BKN090 BKN250 12/08 A3002 RMK AO2 SLP164 T01170083

More Conditions Fewer Conditions

10-Day Weather Forecast

Almanac

Astronomy

Dec. 28, 2014 Rise Set
Actual Time
Civil Twilight
Nautical Twilight
Astronomical Twilight
Moon
Length of Visible Light
Length of Day
Tomorrow will be .
, % of the Moon is Illuminated

Today's Extremes

State Highs State Lows

Community

WunderPhotos

Upload Photos

1,781,452 photos uploaded!

WunderBlogs® & News

Nearby

Air Quality

  Air Quality AQ Index Pollutant
Not available.

Snow Depth

Station Depth Elevation

Earthquake Activity

City Distance Mag. Time & Date
Minimum magnitude displayed is 2.5.

Coastal Water Temperatures

Place Temperature

Nearby Weather Stations